createdAt,value
2022-12-17T00:00:28.386Z,6.78
2022-12-17T00:03:20.771Z,6.57
2022-12-17T00:06:06.731Z,6.50
2022-12-17T00:08:52.229Z,6.63
2022-12-17T00:11:37.877Z,6.78
2022-12-17T00:14:23.468Z,6.43
2022-12-17T00:17:12.339Z,6.50
2022-12-17T00:19:57.915Z,6.90
2022-12-17T00:22:43.295Z,6.85
2022-12-17T00:25:28.682Z,6.68
2022-12-17T00:28:13.955Z,6.47
2022-12-17T00:30:59.363Z,6.53
2022-12-17T00:33:44.860Z,6.53
2022-12-17T00:36:30.164Z,6.82
2022-12-17T00:39:15.419Z,6.32
2022-12-17T00:42:00.821Z,6.53
2022-12-17T00:44:46.298Z,6.90
2022-12-17T00:47:31.779Z,6.47
2022-12-17T00:50:17.372Z,6.47
2022-12-17T00:53:03.027Z,6.30
2022-12-17T00:55:48.262Z,6.78
2022-12-17T00:58:33.584Z,7.00
2022-12-17T01:01:20.933Z,6.40
2022-12-17T01:04:06.270Z,7.03
2022-12-17T01:06:52.738Z,6.90
2022-12-17T01:09:39.338Z,6.43
2022-12-17T01:12:24.837Z,6.53
2022-12-17T01:15:10.116Z,6.85
2022-12-17T01:17:56.306Z,6.68
2022-12-17T01:20:42.104Z,6.30
2022-12-17T01:23:28.274Z,6.55
2022-12-17T01:26:16.085Z,6.63
2022-12-17T01:29:02.127Z,6.10
2022-12-17T01:31:48.298Z,6.60
2022-12-17T01:34:33.642Z,6.22
2022-12-17T01:37:26.868Z,6.68
2022-12-17T01:40:12.606Z,5.90
2022-12-17T01:43:04.877Z,6.35
2022-12-17T01:46:05.693Z,6.35
2022-12-17T01:49:00.844Z,7.13
2022-12-17T01:51:48.453Z,6.40
2022-12-17T01:54:35.306Z,6.45
2022-12-17T01:57:23.111Z,6.32
2022-12-17T02:00:27.026Z,6.60
2022-12-17T02:03:12.786Z,6.75
2022-12-17T02:06:27.493Z,6.55
2022-12-17T02:09:41.800Z,6.35
2022-12-17T02:12:37.329Z,5.57
2022-12-17T02:15:47.457Z,6.55
2022-12-17T02:18:43.485Z,6.75
2022-12-17T02:21:31.088Z,6.50
2022-12-17T02:24:43.115Z,5.72
2022-12-17T02:27:29.637Z,6.40
2022-12-17T02:30:21.549Z,5.95
2022-12-17T02:33:09.932Z,5.82
2022-12-17T02:36:07.881Z,6.03
2022-12-17T02:38:53.405Z,6.43
2022-12-17T02:41:49.448Z,6.25
2022-12-17T02:44:38.042Z,6.22
2022-12-17T02:47:28.445Z,6.65
2022-12-17T02:50:14.258Z,5.88
2022-12-17T02:53:06.720Z,6.00
2022-12-17T02:55:54.267Z,5.93
2022-12-17T02:58:39.748Z,5.93
2022-12-17T03:01:26.382Z,5.72
2022-12-17T03:04:12.114Z,5.68
2022-12-17T03:06:57.796Z,6.05
2022-12-17T03:09:43.195Z,5.68
2022-12-17T03:12:28.630Z,6.07
2022-12-17T03:15:13.859Z,6.20
2022-12-17T03:17:59.277Z,5.63
2022-12-17T03:20:44.726Z,6.00
2022-12-17T03:23:31.177Z,5.80
2022-12-17T03:26:20.266Z,5.60
2022-12-17T03:29:06.732Z,6.20
2022-12-17T03:31:52.397Z,6.07
2022-12-17T03:34:37.900Z,5.63
2022-12-17T03:37:23.378Z,5.88
2022-12-17T03:40:09.138Z,5.78
2022-12-17T03:42:54.831Z,6.20
2022-12-17T03:45:40.223Z,5.88
2022-12-17T03:48:32.626Z,5.50
2022-12-17T03:51:18.953Z,5.93
2022-12-17T03:54:05.482Z,6.68
2022-12-17T03:56:51.937Z,6.13
2022-12-17T03:59:37.588Z,5.72
2022-12-17T04:02:23.296Z,5.47
2022-12-17T04:05:09.211Z,6.22
2022-12-17T04:07:54.672Z,5.57
2022-12-17T04:10:40.154Z,5.82
2022-12-17T04:13:25.457Z,5.43
2022-12-17T04:16:11.567Z,5.80
2022-12-17T04:18:59.436Z,5.65
2022-12-17T04:21:44.577Z,5.75
2022-12-17T04:24:29.958Z,5.72
2022-12-17T04:27:15.414Z,5.57
2022-12-17T04:30:01.074Z,5.90
2022-12-17T04:32:46.765Z,5.80
2022-12-17T04:35:32.547Z,5.50
2022-12-17T04:38:18.099Z,5.00
2022-12-17T04:41:03.705Z,4.80
2022-12-17T04:43:49.334Z,5.35
2022-12-17T04:46:35.012Z,5.47
2022-12-17T04:49:20.129Z,5.70
2022-12-17T04:52:05.598Z,5.50
2022-12-17T04:54:51.301Z,4.93
2022-12-17T04:57:37.006Z,5.85
2022-12-17T05:00:23.336Z,5.40
2022-12-17T05:03:19.149Z,5.72
2022-12-17T05:06:12.286Z,5.50
2022-12-17T05:08:57.897Z,5.35
2022-12-17T05:11:43.973Z,5.47
2022-12-17T05:14:29.578Z,5.28
2022-12-17T05:17:15.469Z,5.32
2022-12-17T05:20:00.743Z,5.15
2022-12-17T05:22:46.238Z,5.47
2022-12-17T05:25:31.646Z,5.38
2022-12-17T05:28:17.045Z,5.47
2022-12-17T05:31:09.419Z,5.88
2022-12-17T05:33:54.760Z,5.13
2022-12-17T05:36:40.783Z,5.47
2022-12-17T05:39:26.677Z,5.40
2022-12-17T05:42:12.027Z,5.95
2022-12-17T05:44:57.616Z,5.50
2022-12-17T05:47:43.333Z,5.50
2022-12-17T05:50:28.894Z,5.07
2022-12-17T05:53:23.793Z,5.00
2022-12-17T05:56:11.434Z,5.43
2022-12-17T05:58:58.308Z,5.05
2022-12-17T06:01:44.147Z,5.47
2022-12-17T06:04:29.923Z,5.18
2022-12-17T06:07:15.447Z,5.85
2022-12-17T06:10:01.286Z,5.43
2022-12-17T06:12:46.813Z,5.70
2022-12-17T06:15:32.379Z,5.47
2022-12-17T06:18:18.205Z,5.60
2022-12-17T06:21:04.663Z,5.85
2022-12-17T06:23:50.191Z,5.47
2022-12-17T06:26:36.112Z,5.00
2022-12-17T06:29:21.504Z,4.97
2022-12-17T06:32:06.660Z,5.60
2022-12-17T06:34:52.150Z,4.93
2022-12-17T06:37:37.499Z,5.35
2022-12-17T06:40:23.636Z,5.63
2022-12-17T06:43:16.020Z,5.20
2022-12-17T06:46:01.594Z,5.60
2022-12-17T06:48:46.998Z,5.05
2022-12-17T06:51:37.074Z,5.78
2022-12-17T06:54:22.646Z,5.35
2022-12-17T06:57:07.892Z,5.13
2022-12-17T06:59:53.344Z,5.40
2022-12-17T07:02:38.576Z,5.05
2022-12-17T07:05:24.348Z,5.40
2022-12-17T07:08:19.032Z,4.88
2022-12-17T07:11:04.421Z,4.97
2022-12-17T07:13:49.779Z,5.20
2022-12-17T07:16:35.874Z,5.60
2022-12-17T07:19:27.000Z,5.10
2022-12-17T07:22:12.840Z,5.40
2022-12-17T07:24:58.693Z,5.35
2022-12-17T07:27:44.466Z,4.70
2022-12-17T07:30:44.873Z,5.65
2022-12-17T07:33:30.903Z,5.03
2022-12-17T07:36:16.171Z,5.25
2022-12-17T07:39:01.664Z,5.43
2022-12-17T07:41:47.164Z,5.00
2022-12-17T07:44:32.766Z,5.32
2022-12-17T07:47:18.501Z,5.03
2022-12-17T07:50:04.251Z,5.15
2022-12-17T07:52:49.914Z,4.80
2022-12-17T07:55:38.277Z,5.13
2022-12-17T07:58:29.256Z,5.07
2022-12-17T08:01:18.748Z,5.60
2022-12-17T08:04:04.733Z,5.70
2022-12-17T08:06:50.607Z,5.35
2022-12-17T08:09:36.381Z,4.72
2022-12-17T08:12:22.080Z,5.25
2022-12-17T08:15:07.758Z,4.93
2022-12-17T08:17:53.177Z,4.72
2022-12-17T08:20:38.662Z,5.30
2022-12-17T08:23:24.812Z,5.00
2022-12-17T08:26:10.531Z,5.70
2022-12-17T08:28:55.943Z,4.93
2022-12-17T08:31:45.650Z,4.88
2022-12-17T08:34:31.293Z,4.95
2022-12-17T08:37:17.049Z,4.80
2022-12-17T08:40:02.700Z,4.95
2022-12-17T08:42:48.162Z,5.47
2022-12-17T08:45:34.054Z,4.93
2022-12-17T08:48:25.486Z,4.80
2022-12-17T08:51:12.215Z,4.68
2022-12-17T08:53:57.788Z,4.60
2022-12-17T08:56:43.951Z,4.40
2022-12-17T08:59:30.650Z,4.97
2022-12-17T09:02:16.229Z,4.90
2022-12-17T09:05:02.065Z,4.45
2022-12-17T09:07:47.605Z,4.43
2022-12-17T09:10:32.957Z,4.65
2022-12-17T09:13:22.684Z,4.38
2022-12-17T09:16:15.521Z,4.68
2022-12-17T09:19:02.477Z,4.45
2022-12-17T09:21:51.164Z,4.22
2022-12-17T09:24:36.713Z,4.32
2022-12-17T09:27:22.485Z,4.53
2022-12-17T09:30:08.310Z,4.22
2022-12-17T09:32:53.400Z,4.30
2022-12-17T09:35:39.094Z,4.45
2022-12-17T09:38:24.452Z,4.22
2022-12-17T09:41:12.845Z,3.97
2022-12-17T09:44:25.684Z,3.88
2022-12-17T09:47:46.819Z,5.13
2022-12-17T09:50:34.889Z,4.50
2022-12-17T09:53:31.748Z,4.68
2022-12-17T09:56:17.468Z,4.40
2022-12-17T09:59:03.074Z,4.72
2022-12-17T10:01:54.230Z,4.22
2022-12-17T10:05:01.547Z,4.00
2022-12-17T10:07:57.346Z,4.22
2022-12-17T10:10:48.861Z,4.50
2022-12-17T10:13:42.023Z,4.22
2022-12-17T10:16:49.831Z,4.38
2022-12-17T10:19:50.517Z,3.90
2022-12-17T10:22:39.617Z,3.95
2022-12-17T10:25:41.723Z,4.20
2022-12-17T10:28:34.377Z,3.80
2022-12-17T10:31:25.515Z,3.97
2022-12-17T10:34:16.279Z,3.80
2022-12-17T10:37:12.332Z,4.03
2022-12-17T10:40:00.403Z,3.83
2022-12-17T10:42:57.564Z,3.92
2022-12-17T10:45:50.693Z,4.13
2022-12-17T10:48:49.104Z,3.67
2022-12-17T10:51:57.791Z,3.35
2022-12-17T10:54:52.397Z,3.67
2022-12-17T10:57:57.965Z,4.10
2022-12-17T11:00:54.371Z,3.47
2022-12-17T11:03:46.976Z,3.83
2022-12-17T11:06:51.915Z,3.45
2022-12-17T11:10:09.190Z,3.50
2022-12-17T11:13:06.336Z,3.45
2022-12-17T11:16:11.749Z,3.47
2022-12-17T11:19:28.432Z,3.45
2022-12-17T11:22:26.104Z,3.55
2022-12-17T11:26:21.758Z,3.70
2022-12-17T11:29:07.396Z,3.47
2022-12-17T11:36:32.533Z,3.00
2022-12-17T11:39:52.186Z,3.35
2022-12-17T11:42:48.124Z,3.28
2022-12-17T11:46:11.361Z,3.25
2022-12-17T11:49:30.245Z,2.83
2022-12-17T11:52:48.389Z,3.28
2022-12-17T11:56:02.818Z,3.40
2022-12-17T11:59:11.286Z,3.17
2022-12-17T12:02:05.022Z,3.28
2022-12-17T12:05:56.303Z,3.05
2022-12-17T12:08:56.637Z,2.58
2022-12-17T12:12:06.717Z,3.17
2022-12-17T12:15:13.109Z,3.35
2022-12-17T12:18:27.062Z,3.30
2022-12-17T12:21:54.051Z,3.13
2022-12-17T12:24:56.113Z,2.80
2022-12-17T12:28:22.417Z,3.20
2022-12-17T12:31:27.937Z,2.90
2022-12-17T12:34:19.919Z,3.15
2022-12-17T12:37:08.874Z,3.45
2022-12-17T12:40:14.216Z,3.58
2022-12-17T12:43:14.894Z,3.20
2022-12-17T12:46:25.919Z,2.92
2022-12-17T12:49:23.977Z,4.60
2022-12-17T12:52:18.308Z,3.33
2022-12-17T12:55:12.843Z,3.92
2022-12-17T12:58:34.527Z,3.92
2022-12-17T13:01:20.646Z,3.15
2022-12-17T13:04:05.751Z,3.40
2022-12-17T13:06:58.240Z,3.33
2022-12-17T13:09:32.478Z,3.15
2022-12-17T13:12:04.437Z,3.35
2022-12-17T13:15:07.350Z,3.50
2022-12-17T13:17:43.042Z,3.42
2022-12-17T13:20:31.084Z,3.80
2022-12-17T13:23:10.116Z,3.03
2022-12-17T13:25:38.265Z,3.40
2022-12-17T13:28:25.934Z,3.85
2022-12-17T13:31:04.014Z,3.25
2022-12-17T13:34:23.069Z,3.60
2022-12-17T13:37:04.436Z,3.65
2022-12-17T13:39:55.898Z,4.32
2022-12-17T13:42:36.395Z,3.40
2022-12-17T13:45:04.414Z,3.60
2022-12-17T13:47:35.290Z,3.40
2022-12-17T13:50:36.617Z,3.90
2022-12-17T13:53:12.752Z,4.20
2022-12-17T13:55:40.287Z,3.78
2022-12-17T13:58:21.374Z,3.60
2022-12-17T14:00:48.592Z,3.53
2022-12-17T14:03:37.166Z,3.35
2022-12-17T14:06:11.627Z,4.13
2022-12-17T14:08:40.264Z,3.83
2022-12-17T14:11:26.093Z,3.67
2022-12-17T14:13:54.122Z,3.70
2022-12-17T14:16:22.734Z,3.22
2022-12-17T14:18:57.159Z,3.85
2022-12-17T14:21:28.462Z,3.20
2022-12-17T14:23:57.396Z,3.45
2022-12-17T14:26:24.458Z,3.20
2022-12-17T14:28:55.162Z,3.45
2022-12-17T14:31:29.386Z,3.60
2022-12-17T14:34:11.838Z,3.47
2022-12-17T14:36:46.858Z,3.10
2022-12-17T14:39:23.930Z,3.45
2022-12-17T14:42:09.990Z,3.55
2022-12-17T14:44:50.257Z,3.17
2022-12-17T14:47:28.868Z,3.00
2022-12-17T14:50:25.922Z,3.13
2022-12-17T14:52:55.708Z,3.20
2022-12-17T14:55:55.515Z,3.15
2022-12-17T14:58:26.102Z,3.08
2022-12-17T15:01:09.096Z,3.25
2022-12-17T15:03:43.282Z,3.33
2022-12-17T15:06:15.462Z,2.95
2022-12-17T15:08:49.456Z,3.10
2022-12-17T15:11:21.876Z,3.00
2022-12-17T15:13:53.074Z,3.08
2022-12-17T15:16:23.156Z,3.08
2022-12-17T15:18:50.344Z,3.63
2022-12-17T15:21:19.273Z,3.25
2022-12-17T15:23:47.810Z,3.25
2022-12-17T15:26:15.526Z,3.42
2022-12-17T15:28:43.847Z,3.17
2022-12-17T15:31:13.448Z,3.35
2022-12-17T15:33:42.244Z,2.92
2022-12-17T15:36:13.880Z,3.28
2022-12-17T15:38:41.064Z,3.00
2022-12-17T15:41:26.527Z,3.30
2022-12-17T15:43:55.279Z,3.58
2022-12-17T15:46:22.332Z,3.35
2022-12-17T15:48:50.734Z,3.33
2022-12-17T15:51:19.945Z,3.55
2022-12-17T15:53:48.334Z,3.30
2022-12-17T15:56:22.528Z,3.28
2022-12-17T15:58:49.568Z,3.30
2022-12-17T16:01:17.754Z,3.42
2022-12-17T16:03:44.863Z,3.45
2022-12-17T16:06:13.540Z,3.28
2022-12-17T16:08:41.163Z,3.95
2022-12-17T16:11:10.750Z,3.63
2022-12-17T16:13:38.371Z,3.20
2022-12-17T16:16:07.103Z,3.65
2022-12-17T16:18:35.563Z,3.30
2022-12-17T16:21:08.799Z,3.70
2022-12-17T16:23:36.665Z,3.67
2022-12-17T16:26:07.648Z,3.65
2022-12-17T16:28:36.545Z,3.08
2022-12-17T16:31:11.694Z,3.35
2022-12-17T16:33:42.540Z,3.33
2022-12-17T16:36:14.126Z,3.38
2022-12-17T16:38:48.211Z,3.17
2022-12-17T16:41:16.386Z,3.45
2022-12-17T16:43:44.127Z,3.42
2022-12-17T16:46:34.673Z,3.15
2022-12-17T16:49:20.821Z,3.33
2022-12-17T16:51:51.447Z,2.90
2022-12-17T16:54:22.658Z,3.10
2022-12-17T16:56:50.370Z,3.92
2022-12-17T16:59:18.267Z,3.35
2022-12-17T17:01:48.851Z,3.45
2022-12-17T17:04:18.589Z,3.38
2022-12-17T17:06:53.066Z,3.75
2022-12-17T17:09:21.141Z,3.53
2022-12-17T17:11:51.752Z,3.05
2022-12-17T17:14:19.843Z,3.50
2022-12-17T17:16:46.848Z,3.25
2022-12-17T17:19:14.274Z,3.40
2022-12-17T17:21:47.921Z,3.72
2022-12-17T17:24:21.268Z,3.40
2022-12-17T17:26:50.700Z,3.63
2022-12-17T17:29:20.958Z,3.33
2022-12-17T17:34:35.398Z,3.63
2022-12-17T17:37:02.269Z,3.80
2022-12-17T17:39:33.001Z,3.65
2022-12-17T17:42:02.604Z,3.90
2022-12-17T17:44:29.655Z,3.70
2022-12-17T17:46:56.772Z,3.80
2022-12-17T17:49:23.921Z,3.60
2022-12-17T17:54:39.634Z,3.90
2022-12-17T17:57:07.448Z,3.47
2022-12-17T17:59:34.700Z,3.60
2022-12-17T18:02:03.522Z,3.60
2022-12-17T18:04:31.501Z,3.80
2022-12-17T18:07:28.679Z,3.92
2022-12-17T18:09:45.471Z,4.43
2022-12-17T18:12:32.674Z,4.00
2022-12-17T18:15:16.939Z,3.63
2022-12-17T18:17:51.223Z,3.63
2022-12-17T18:20:18.444Z,4.00
2022-12-17T18:22:46.663Z,3.65
2022-12-17T18:25:15.347Z,4.40
2022-12-17T18:27:42.716Z,4.00
2022-12-17T18:30:10.293Z,4.57
2022-12-17T18:32:37.219Z,4.40
2022-12-17T18:35:04.527Z,4.18
2022-12-17T18:37:31.517Z,5.28
2022-12-17T18:39:58.439Z,4.45
2022-12-17T18:42:46.929Z,4.80
2022-12-17T18:45:14.174Z,4.38
2022-12-17T18:47:42.509Z,4.50
2022-12-17T18:50:10.881Z,4.35
2022-12-17T18:52:38.669Z,5.13
2022-12-17T18:55:06.396Z,4.32
2022-12-17T18:57:33.264Z,4.65
2022-12-17T19:00:00.136Z,4.80
2022-12-17T19:02:27.184Z,4.88
2022-12-17T19:04:54.501Z,4.80
2022-12-17T19:07:21.425Z,4.75
2022-12-17T19:09:48.291Z,4.63
2022-12-17T19:12:15.215Z,4.90
2022-12-17T19:14:42.879Z,4.93
2022-12-17T19:17:09.942Z,4.63
2022-12-17T19:19:36.839Z,4.93
2022-12-17T19:22:03.884Z,4.80
2022-12-17T19:24:30.916Z,4.78
2022-12-17T19:26:58.018Z,4.57
2022-12-17T19:29:24.984Z,5.45
2022-12-17T19:31:52.022Z,4.38
2022-12-17T19:34:20.155Z,5.15
2022-12-17T19:36:48.106Z,4.55
2022-12-17T19:39:20.431Z,4.82
2022-12-17T19:41:51.050Z,5.13
2022-12-17T19:44:20.628Z,5.25
2022-12-17T19:46:48.958Z,4.65
2022-12-17T19:49:17.310Z,4.80
2022-12-17T19:51:44.942Z,5.18
2022-12-17T19:54:19.041Z,5.15
2022-12-17T19:56:46.175Z,5.25
2022-12-17T19:59:15.949Z,5.05
2022-12-17T20:01:46.400Z,5.20
2022-12-17T20:04:16.503Z,4.65
2022-12-17T20:06:45.207Z,5.40
2022-12-17T20:09:13.470Z,5.13
2022-12-17T20:11:40.944Z,5.35
2022-12-17T20:14:12.804Z,4.90
2022-12-17T20:16:50.197Z,5.32
2022-12-17T20:19:25.330Z,5.35
2022-12-17T20:21:54.904Z,5.22
2022-12-17T20:24:30.712Z,5.00
2022-12-17T20:27:00.245Z,5.60
2022-12-17T20:29:32.793Z,6.03
2022-12-17T20:32:00.260Z,5.68
2022-12-17T20:34:27.291Z,5.07
2022-12-17T20:36:54.538Z,6.03
2022-12-17T20:39:26.985Z,5.35
2022-12-17T20:41:56.063Z,5.47
2022-12-17T20:44:23.091Z,5.32
2022-12-17T20:46:50.150Z,5.80
2022-12-17T20:49:17.116Z,5.70
2022-12-17T20:51:44.187Z,5.60
2022-12-17T20:54:11.693Z,5.60
2022-12-17T20:56:40.269Z,5.55
2022-12-17T20:59:13.590Z,6.38
2022-12-17T21:01:40.877Z,6.03
2022-12-17T21:04:08.188Z,5.60
2022-12-17T21:06:45.161Z,5.68
2022-12-17T21:09:14.357Z,5.70
2022-12-17T21:11:42.004Z,5.18
2022-12-17T21:14:13.493Z,5.60
2022-12-17T21:16:45.444Z,5.93
2022-12-17T21:19:16.505Z,5.97
2022-12-17T21:21:44.020Z,6.20
2022-12-17T21:24:11.577Z,5.35
2022-12-17T21:26:43.793Z,5.97
2022-12-17T21:29:11.763Z,5.60
2022-12-17T21:31:51.644Z,6.30
2022-12-17T21:34:22.266Z,6.03
2022-12-17T21:36:50.989Z,5.65
2022-12-17T21:39:19.523Z,5.95
2022-12-17T21:42:06.428Z,6.32
2022-12-17T21:44:33.620Z,5.72
2022-12-17T21:47:00.842Z,5.40
2022-12-17T21:49:27.813Z,6.20
2022-12-17T21:51:57.661Z,5.97
2022-12-17T21:54:25.055Z,5.97
2022-12-17T21:56:52.106Z,6.43
2022-12-17T21:59:18.948Z,5.70
2022-12-17T22:01:45.996Z,5.88
2022-12-17T22:04:13.237Z,6.20
2022-12-17T22:06:51.001Z,6.05
2022-12-17T22:09:43.830Z,5.82
2022-12-17T22:12:29.095Z,6.13
2022-12-17T22:14:56.011Z,5.32
2022-12-17T22:17:23.525Z,6.13
2022-12-17T22:19:50.463Z,5.75
2022-12-17T22:22:17.400Z,5.00
2022-12-17T22:24:44.423Z,5.80
2022-12-17T22:27:11.456Z,5.30
2022-12-17T22:29:56.854Z,5.63
2022-12-17T22:32:42.420Z,5.90
2022-12-17T22:36:35.250Z,5.28
2022-12-17T22:41:12.549Z,5.32
2022-12-17T22:44:15.258Z,5.25
2022-12-17T22:44:41.673Z,5.05
2022-12-17T22:46:18.378Z,4.85
2022-12-17T22:48:45.478Z,5.05
2022-12-17T22:51:21.371Z,5.15
2022-12-17T22:54:05.725Z,5.20
2022-12-17T22:57:34.697Z,5.00
2022-12-17T22:59:23.070Z,5.13
2022-12-17T23:01:49.990Z,4.75
2022-12-17T23:04:17.294Z,4.95
2022-12-17T23:06:45.639Z,5.05
2022-12-17T23:09:18.320Z,4.57
2022-12-17T23:11:46.611Z,5.10
2022-12-17T23:14:13.663Z,4.95
2022-12-17T23:16:41.197Z,5.03
2022-12-17T23:19:08.964Z,4.90
2022-12-17T23:21:36.375Z,4.50
2022-12-17T23:24:04.905Z,4.57
2022-12-17T23:26:35.359Z,4.50
2022-12-17T23:29:17.641Z,4.97
2022-12-17T23:31:47.212Z,4.45
2022-12-17T23:34:14.651Z,4.50
2022-12-17T23:36:41.572Z,4.60
2022-12-17T23:39:08.598Z,4.55
2022-12-17T23:41:35.656Z,4.72
2022-12-17T23:44:02.570Z,4.68
2022-12-17T23:46:30.898Z,4.28
2022-12-17T23:48:57.941Z,5.15
2022-12-17T23:51:25.552Z,4.35
2022-12-17T23:53:52.549Z,4.45
2022-12-17T23:56:24.486Z,4.68
2022-12-17T23:58:58.833Z,4.53
